sensor_id;sensor_type;location;lat;lon;timestamp;pressure;altitude;pressure_sealevel;temperature;humidity
65359;BME280;52491;45.900;6.346;2023-03-14T00:00:52;92898.47;;;23.30;42.72
65359;BME280;52491;45.900;6.346;2023-03-14T00:03:18;92892.06;;;23.31;42.64
65359;BME280;52491;45.900;6.346;2023-03-14T00:05:46;92877.19;;;23.30;42.38
65359;BME280;52491;45.900;6.346;2023-03-14T00:08:12;92865.72;;;23.30;42.33
65359;BME280;52491;45.900;6.346;2023-03-14T00:10:38;92879.31;;;23.28;42.27
65359;BME280;52491;45.900;6.346;2023-03-14T00:13:04;92866.03;;;23.28;42.30
65359;BME280;52491;45.900;6.346;2023-03-14T00:15:31;92857.53;;;23.26;42.17
65359;BME280;52491;45.900;6.346;2023-03-14T00:17:57;92867.06;;;23.27;42.27
65359;BME280;52491;45.900;6.346;2023-03-14T00:20:22;92852.19;;;23.26;42.00
65359;BME280;52491;45.900;6.346;2023-03-14T00:22:48;92865.22;;;23.28;41.94
65359;BME280;52491;45.900;6.346;2023-03-14T00:25:13;92881.97;;;23.28;41.89
65359;BME280;52491;45.900;6.346;2023-03-14T00:27:39;92878.53;;;23.28;41.76
65359;BME280;52491;45.900;6.346;2023-03-14T00:30:05;92895.28;;;23.28;41.78
65359;BME280;52491;45.900;6.346;2023-03-14T00:32:33;92913.09;;;23.28;41.54
65359;BME280;52491;45.900;6.346;2023-03-14T00:34:59;92898.97;;;23.27;41.32
65359;BME280;52491;45.900;6.346;2023-03-14T00:37:26;92908.84;;;23.27;41.49
65359;BME280;52491;45.900;6.346;2023-03-14T00:39:52;92933.56;;;23.27;41.16
65359;BME280;52491;45.900;6.346;2023-03-14T00:42:17;92941.28;;;23.29;40.92
65359;BME280;52491;45.900;6.346;2023-03-14T00:44:43;92939.97;;;23.26;40.90
65359;BME280;52491;45.900;6.346;2023-03-14T00:47:09;92946.84;;;23.27;40.86
65359;BME280;52491;45.900;6.346;2023-03-14T00:49:35;92952.47;;;23.26;41.08
65359;BME280;52491;45.900;6.346;2023-03-14T00:52:00;92944.75;;;23.24;40.86
65359;BME280;52491;45.900;6.346;2023-03-14T00:54:26;92946.63;;;23.23;40.72
65359;BME280;52491;45.900;6.346;2023-03-14T00:56:52;92942.88;;;23.24;40.71
65359;BME280;52491;45.900;6.346;2023-03-14T00:59:17;92935.97;;;23.23;40.58
65359;BME280;52491;45.900;6.346;2023-03-14T01:01:43;92951.16;;;23.23;40.47
65359;BME280;52491;45.900;6.346;2023-03-14T01:04:09;92956.47;;;23.23;40.42
65359;BME280;52491;45.900;6.346;2023-03-14T01:06:34;92957.25;;;23.23;40.42
65359;BME280;52491;45.900;6.346;2023-03-14T01:09:00;92953.81;;;23.23;40.23
65359;BME280;52491;45.900;6.346;2023-03-14T01:11:31;92937.06;;;23.22;40.00
65359;BME280;52491;45.900;6.346;2023-03-14T01:13:58;92943.19;;;23.23;40.22
65359;BME280;52491;45.900;6.346;2023-03-14T01:16:26;92938.94;;;23.22;39.96
65359;BME280;52491;45.900;6.346;2023-03-14T01:18:52;92940.50;;;23.23;39.74
65359;BME280;52491;45.900;6.346;2023-03-14T01:21:21;92935.97;;;23.23;39.73
65359;BME280;52491;45.900;6.346;2023-03-14T01:23:47;92949.28;;;23.23;39.80
65359;BME280;52491;45.900;6.346;2023-03-14T01:26:16;92946.63;;;23.23;39.54
65359;BME280;52491;45.900;6.346;2023-03-14T01:28:45;92943.19;;;23.23;39.53
65359;BME280;52491;45.900;6.346;2023-03-14T01:31:11;92943.97;;;23.23;39.25
65359;BME280;52491;45.900;6.346;2023-03-14T01:33:38;92944.25;;;23.22;39.39
65359;BME280;52491;45.900;6.346;2023-03-14T01:36:05;92951.41;;;23.21;39.26
65359;BME280;52491;45.900;6.346;2023-03-14T01:38:32;92941.06;;;23.20;39.23
65359;BME280;52491;45.900;6.346;2023-03-14T01:40:58;92944.25;;;23.22;39.15
65359;BME280;52491;45.900;6.346;2023-03-14T01:43:24;92956.47;;;23.23;39.15
65359;BME280;52491;45.900;6.346;2023-03-14T01:52:20;92942.66;;;23.21;39.05
65359;BME280;52491;45.900;6.346;2023-03-14T01:56:58;92933.88;;;23.20;38.71
65359;BME280;52491;45.900;6.346;2023-03-14T01:59:29;92915.78;;;23.22;38.69
65359;BME280;52491;45.900;6.346;2023-03-14T02:01:55;92901.72;;;23.22;38.62
65359;BME280;52491;45.900;6.346;2023-03-14T02:04:22;92905.16;;;23.22;38.48
65359;BME280;52491;45.900;6.346;2023-03-14T02:06:52;92893.44;;;23.23;38.59
65359;BME280;52491;45.900;6.346;2023-03-14T02:09:20;92892.66;;;23.23;38.53
65359;BME280;52491;45.900;6.346;2023-03-14T02:11:46;92887.34;;;23.23;38.46
65359;BME280;52491;45.900;6.346;2023-03-14T02:14:28;92884.69;;;23.23;38.35
65359;BME280;52491;45.900;6.346;2023-03-14T02:16:55;92876.69;;;23.23;38.38
65359;BME280;52491;45.900;6.346;2023-03-14T02:19:32;92885.47;;;23.23;38.28
65359;BME280;52491;45.900;6.346;2023-03-14T02:22:11;92880.16;;;23.23;38.28
65359;BME280;52491;45.900;6.346;2023-03-14T02:24:49;92883.59;;;23.24;38.17
65359;BME280;52491;45.900;6.346;2023-03-14T02:27:20;92872.16;;;23.23;38.01
65359;BME280;52491;45.900;6.346;2023-03-14T02:29:53;92863.41;;;23.23;38.19
65359;BME280;52491;45.900;6.346;2023-03-14T02:32:21;92859.66;;;23.24;38.08
65359;BME280;52491;45.900;6.346;2023-03-14T02:34:52;92860.19;;;23.26;37.76
65359;BME280;52491;45.900;6.346;2023-03-14T02:37:22;92852.19;;;23.26;37.87
65359;BME280;52491;45.900;6.346;2023-03-14T02:39:48;92851.69;;;23.24;37.98
65359;BME280;52491;45.900;6.346;2023-03-14T02:42:17;92860.19;;;23.26;38.06
65359;BME280;52491;45.900;6.346;2023-03-14T02:44:55;92852.19;;;23.26;38.20
65359;BME280;52491;45.900;6.346;2023-03-14T02:47:29;92835.72;;;23.24;38.08
65359;BME280;52491;45.900;6.346;2023-03-14T02:50:02;92833.38;;;23.22;37.95
65359;BME280;52491;45.900;6.346;2023-03-14T02:52:29;92843.22;;;23.22;38.05
65359;BME280;52491;45.900;6.346;2023-03-14T02:54:54;92831.75;;;23.21;37.93
65359;BME280;52491;45.900;6.346;2023-03-14T02:57:20;92822.72;;;23.22;37.84
65359;BME280;52491;45.900;6.346;2023-03-14T02:59:46;92810.50;;;23.21;37.83
65359;BME280;52491;45.900;6.346;2023-03-14T03:02:11;92790.81;;;23.22;37.81
65359;BME280;52491;45.900;6.346;2023-03-14T03:04:37;92792.13;;;23.25;37.77
65359;BME280;52491;45.900;6.346;2023-03-14T03:07:02;92800.88;;;23.26;37.65
65359;BME280;52491;45.900;6.346;2023-03-14T03:09:28;92804.34;;;23.26;37.55
65359;BME280;52491;45.900;6.346;2023-03-14T03:11:53;92801.69;;;23.26;37.43
65359;BME280;52491;45.900;6.346;2023-03-14T03:14:19;92796.34;;;23.26;37.15
65359;BME280;52491;45.900;6.346;2023-03-14T03:16:45;92801.69;;;23.26;37.46
65359;BME280;52491;45.900;6.346;2023-03-14T03:19:10;92796.34;;;23.26;37.24
65359;BME280;52491;45.900;6.346;2023-03-14T03:21:36;92805.91;;;23.27;37.23
65359;BME280;52491;45.900;6.346;2023-03-14T03:24:02;92807.78;;;23.27;37.18
65359;BME280;52491;45.900;6.346;2023-03-14T03:26:27;92797.94;;;23.27;37.26
65359;BME280;52491;45.900;6.346;2023-03-14T03:28:53;92773.22;;;23.27;37.20
65359;BME280;52491;45.900;6.346;2023-03-14T03:31:18;92770.56;;;23.27;37.20
65359;BME280;52491;45.900;6.346;2023-03-14T03:33:44;92759.13;;;23.26;36.90
65359;BME280;52491;45.900;6.346;2023-03-14T03:36:10;92753.03;;;23.26;36.90
65359;BME280;52491;45.900;6.346;2023-03-14T03:38:35;92747.72;;;23.26;36.97
65359;BME280;52491;45.900;6.346;2023-03-14T03:41:06;92746.63;;;23.27;37.00
65359;BME280;52491;45.900;6.346;2023-03-14T03:43:31;92735.19;;;23.26;36.86
65359;BME280;52491;45.900;6.346;2023-03-14T03:45:57;92734.13;;;23.27;36.73
65359;BME280;52491;45.900;6.346;2023-03-14T03:48:22;92738.66;;;23.27;36.88
65359;BME280;52491;45.900;6.346;2023-03-14T03:50:48;92739.44;;;23.27;36.89
65359;BME280;52491;45.900;6.346;2023-03-14T03:53:14;92745.56;;;23.28;36.85
65359;BME280;52491;45.900;6.346;2023-03-14T03:55:42;92747.94;;;23.29;36.72
65359;BME280;52491;45.900;6.346;2023-03-14T03:58:08;92748.22;;;23.28;36.57
65359;BME280;52491;45.900;6.346;2023-03-14T04:00:33;92739.44;;;23.27;36.67
65359;BME280;52491;45.900;6.346;2023-03-14T04:02:59;92747.72;;;23.26;36.56
65359;BME280;52491;45.900;6.346;2023-03-14T04:05:26;92743.19;;;23.26;36.52
65359;BME280;52491;45.900;6.346;2023-03-14T04:07:51;92733.34;;;23.27;36.32
65359;BME280;52491;45.900;6.346;2023-03-14T04:10:17;92726.44;;;23.26;36.23
65359;BME280;52491;45.900;6.346;2023-03-14T04:12:43;92723.78;;;23.26;36.50
65359;BME280;52491;45.900;6.346;2023-03-14T04:15:09;92720.34;;;23.25;36.11
65359;BME280;52491;45.900;6.346;2023-03-14T04:17:34;92731.75;;;23.26;36.35
65359;BME280;52491;45.900;6.346;2023-03-14T04:20:00;92720.34;;;23.25;36.30
65359;BME280;52491;45.900;6.346;2023-03-14T04:22:26;92707.03;;;23.25;36.06
65359;BME280;52491;45.900;6.346;2023-03-14T04:24:51;92703.28;;;23.26;36.22
65359;BME280;52491;45.900;6.346;2023-03-14T04:27:17;92697.19;;;23.26;36.05
65359;BME280;52491;45.900;6.346;2023-03-14T04:29:42;92701.41;;;23.27;35.98
65359;BME280;52491;45.900;6.346;2023-03-14T04:32:08;92695.31;;;23.26;35.98
65359;BME280;52491;45.900;6.346;2023-03-14T04:34:34;92697.97;;;23.26;35.71
65359;BME280;52491;45.900;6.346;2023-03-14T04:36:59;92680.16;;;23.27;35.86
65359;BME280;52491;45.900;6.346;2023-03-14T04:39:25;92681.75;;;23.28;36.11
65359;BME280;52491;45.900;6.346;2023-03-14T04:41:50;92662.84;;;23.29;36.05
65359;BME280;52491;45.900;6.346;2023-03-14T04:44:16;92646.38;;;23.27;36.08
65359;BME280;52491;45.900;6.346;2023-03-14T04:46:41;92629.63;;;23.27;35.76
65359;BME280;52491;45.900;6.346;2023-03-14T04:49:07;92630.41;;;23.27;35.98
65359;BME280;52491;45.900;6.346;2023-03-14T04:51:32;92621.66;;;23.27;35.87
65359;BME280;52491;45.900;6.346;2023-03-14T04:53:58;92609.13;;;23.27;35.72
65359;BME280;52491;45.900;6.346;2023-03-14T04:56:24;92611.00;;;23.27;35.72
65359;BME280;52491;45.900;6.346;2023-03-14T04:58:49;92602.75;;;23.28;35.68
65359;BME280;52491;45.900;6.346;2023-03-14T05:01:15;92617.84;;;23.33;35.70
65359;BME280;52491;45.900;6.346;2023-03-14T05:03:41;92613.34;;;23.33;35.44
65359;BME280;52491;45.900;6.346;2023-03-14T05:06:06;92605.34;;;23.33;35.55
65359;BME280;52491;45.900;6.346;2023-03-14T05:08:33;92608.03;;;23.33;35.68
65359;BME280;52491;45.900;6.346;2023-03-14T05:10:59;92605.06;;;23.35;35.63
65359;BME280;52491;45.900;6.346;2023-03-14T05:13:25;92610.38;;;23.35;35.45
65359;BME280;52491;45.900;6.346;2023-03-14T05:15:51;92594.41;;;23.35;35.44
65359;BME280;52491;45.900;6.346;2023-03-14T05:18:17;92594.41;;;23.35;35.51
65359;BME280;52491;45.900;6.346;2023-03-14T05:20:44;92589.09;;;23.35;35.29
65359;BME280;52491;45.900;6.346;2023-03-14T05:23:10;92583.00;;;23.34;35.12
65359;BME280;52491;45.900;6.346;2023-03-14T05:25:35;92577.69;;;23.34;35.31
65359;BME280;52491;45.900;6.346;2023-03-14T05:28:01;92581.91;;;23.35;35.33
65359;BME280;52491;45.900;6.346;2023-03-14T05:30:26;92590.19;;;23.34;35.16
65359;BME280;52491;45.900;6.346;2023-03-14T05:32:53;92592.53;;;23.35;35.05
65359;BME280;52491;45.900;6.346;2023-03-14T05:35:19;92588.31;;;23.34;35.15
65359;BME280;52491;45.900;6.346;2023-03-14T05:37:45;92581.44;;;23.33;35.20
65359;BME280;52491;45.900;6.346;2023-03-14T05:40:11;92586.44;;;23.35;35.00
65359;BME280;52491;45.900;6.346;2023-03-14T05:42:36;92580.34;;;23.34;35.22
65359;BME280;52491;45.900;6.346;2023-03-14T05:45:02;92587.81;;;23.32;35.18
65359;BME280;52491;45.900;6.346;2023-03-14T05:47:28;92599.81;;;23.30;35.36
65359;BME280;52491;45.900;6.346;2023-03-14T05:49:54;92600.63;;;23.30;35.31
65359;BME280;52491;45.900;6.346;2023-03-14T05:52:19;92600.69;;;23.25;35.35
65359;BME280;52491;45.900;6.346;2023-03-14T05:54:45;92594.00;;;23.28;35.21
65359;BME280;52491;45.900;6.346;2023-03-14T05:57:11;92597.13;;;23.30;35.46
65359;BME280;52491;45.900;6.346;2023-03-14T05:59:36;92589.97;;;23.30;35.34
65359;BME280;52491;45.900;6.346;2023-03-14T06:02:02;92593.44;;;23.31;35.27
65359;BME280;52491;45.900;6.346;2023-03-14T06:04:28;92596.09;;;23.31;35.25
65359;BME280;52491;45.900;6.346;2023-03-14T06:06:53;92594.22;;;23.31;35.48
65359;BME280;52491;45.900;6.346;2023-03-14T06:09:19;92597.38;;;23.33;35.39
65359;BME280;52491;45.900;6.346;2023-03-14T06:11:47;92593.63;;;23.34;35.37
65359;BME280;52491;45.900;6.346;2023-03-14T06:14:13;92589.88;;;23.35;35.43
65359;BME280;52491;45.900;6.346;2023-03-14T06:16:38;92595.19;;;23.35;35.25
65359;BME280;52491;45.900;6.346;2023-03-14T06:19:05;92593.34;;;23.36;35.49
65359;BME280;52491;45.900;6.346;2023-03-14T06:21:30;92604.47;;;23.38;35.59
65359;BME280;52491;45.900;6.346;2023-03-14T06:23:56;92609.53;;;23.39;35.60
65359;BME280;52491;45.900;6.346;2023-03-14T06:26:22;92603.13;;;23.40;35.61
65359;BME280;52491;45.900;6.346;2023-03-14T06:28:48;92605.78;;;23.40;35.36
65359;BME280;52491;45.900;6.346;2023-03-14T06:31:14;92606.56;;;23.41;35.53
65359;BME280;52491;45.900;6.346;2023-03-14T06:33:40;92613.75;;;23.40;35.55
65359;BME280;52491;45.900;6.346;2023-03-14T06:36:06;92621.72;;;23.40;35.63
65359;BME280;52491;45.900;6.346;2023-03-14T06:38:32;92620.16;;;23.39;35.65
65359;BME280;52491;45.900;6.346;2023-03-14T06:41:03;92622.81;;;23.39;35.30
65359;BME280;52491;45.900;6.346;2023-03-14T06:43:29;92622.31;;;23.37;35.57
65359;BME280;52491;45.900;6.346;2023-03-14T06:45:54;92623.09;;;23.38;35.62
65359;BME280;52491;45.900;6.346;2023-03-14T06:48:20;92634.81;;;23.37;35.65
65359;BME280;52491;45.900;6.346;2023-03-14T06:50:45;92622.63;;;23.36;34.19
65359;BME280;52491;45.900;6.346;2023-03-14T06:53:12;92632.22;;;23.32;34.78
65359;BME280;52491;45.900;6.346;2023-03-14T06:55:38;92631.44;;;23.31;34.93
65359;BME280;52491;45.900;6.346;2023-03-14T06:58:03;92639.94;;;23.33;34.93
65359;BME280;52491;45.900;6.346;2023-03-14T07:00:30;92638.84;;;23.34;35.08
65359;BME280;52491;45.900;6.346;2023-03-14T07:02:55;92642.28;;;23.35;34.70
65359;BME280;52491;45.900;6.346;2023-03-14T07:05:21;92635.91;;;23.36;34.98
65359;BME280;52491;45.900;6.346;2023-03-14T07:07:46;92644.69;;;23.36;35.04
65359;BME280;52491;45.900;6.346;2023-03-14T07:10:12;92652.66;;;23.36;34.91
65359;BME280;52491;45.900;6.346;2023-03-14T07:12:38;92655.31;;;23.36;34.97
65359;BME280;52491;45.900;6.346;2023-03-14T07:15:03;92669.41;;;23.37;35.00
65359;BME280;52491;45.900;6.346;2023-03-14T07:17:29;92678.16;;;23.37;34.82
65359;BME280;52491;45.900;6.346;2023-03-14T07:19:55;92675.50;;;23.37;34.85
65359;BME280;52491;45.900;6.346;2023-03-14T07:22:20;92680.03;;;23.37;34.76
65359;BME280;52491;45.900;6.346;2023-03-14T07:24:46;92677.88;;;23.39;34.79
65359;BME280;52491;45.900;6.346;2023-03-14T07:27:11;92691.19;;;23.39;35.02
65359;BME280;52491;45.900;6.346;2023-03-14T07:29:37;92685.88;;;23.39;34.86
65359;BME280;52491;45.900;6.346;2023-03-14T07:32:02;92700.22;;;23.38;34.85
65359;BME280;52491;45.900;6.346;2023-03-14T07:34:28;92702.88;;;23.38;34.85
65359;BME280;52491;45.900;6.346;2023-03-14T07:36:53;92706.63;;;23.37;34.82
65359;BME280;52491;45.900;6.346;2023-03-14T07:39:19;92702.09;;;23.37;34.85
65359;BME280;52491;45.900;6.346;2023-03-14T07:41:45;92711.94;;;23.37;34.73
65359;BME280;52491;45.900;6.346;2023-03-14T07:44:10;92711.16;;;23.36;34.65
65359;BME280;52491;45.900;6.346;2023-03-14T07:46:36;92713.81;;;23.36;34.69
65359;BME280;52491;45.900;6.346;2023-03-14T07:49:01;92718.84;;;23.38;34.64
65359;BME280;52491;45.900;6.346;2023-03-14T07:51:27;92723.38;;;23.37;34.47
65359;BME280;52491;45.900;6.346;2023-03-14T07:53:52;92728.41;;;23.39;34.42
65359;BME280;52491;45.900;6.346;2023-03-14T07:56:18;92723.09;;;23.39;34.48
65359;BME280;52491;45.900;6.346;2023-03-14T07:58:44;92742.78;;;23.38;34.68
65359;BME280;52491;45.900;6.346;2023-03-14T08:01:09;92731.34;;;23.37;34.53
65359;BME280;52491;45.900;6.346;2023-03-14T08:03:35;92739.06;;;23.39;34.67
65359;BME280;52491;45.900;6.346;2023-03-14T08:06:00;92738.53;;;23.37;34.76
65359;BME280;52491;45.900;6.346;2023-03-14T08:08:26;92744.38;;;23.39;34.48
65359;BME280;52491;45.900;6.346;2023-03-14T08:10:51;92739.34;;;23.37;34.60
65359;BME280;52491;45.900;6.346;2023-03-14T08:13:17;92754.50;;;23.37;34.56
65359;BME280;52491;45.900;6.346;2023-03-14T08:15:47;92755.03;;;23.39;34.48
65359;BME280;52491;45.900;6.346;2023-03-14T08:18:13;92752.34;;;23.39;34.57
65359;BME280;52491;45.900;6.346;2023-03-14T08:20:39;92753.94;;;23.40;34.57
65359;BME280;52491;45.900;6.346;2023-03-14T08:23:04;92758.47;;;23.39;34.35
65359;BME280;52491;45.900;6.346;2023-03-14T08:25:30;92761.41;;;23.38;34.41
65359;BME280;52491;45.900;6.346;2023-03-14T08:27:56;92764.34;;;23.36;34.32
65359;BME280;52491;45.900;6.346;2023-03-14T08:30:23;92770.97;;;23.39;34.36
65359;BME280;52491;45.900;6.346;2023-03-14T08:32:49;92773.63;;;23.39;34.40
65359;BME280;52491;45.900;6.346;2023-03-14T08:35:15;92774.41;;;23.39;34.42
65359;BME280;52491;45.900;6.346;2023-03-14T08:37:41;92774.69;;;23.38;34.35
65359;BME280;52491;45.900;6.346;2023-03-14T08:40:07;92783.47;;;23.38;34.17
65359;BME280;52491;45.900;6.346;2023-03-14T08:42:36;92783.47;;;23.38;34.33
65359;BME280;52491;45.900;6.346;2023-03-14T08:45:02;92788.78;;;23.38;34.30
65359;BME280;52491;45.900;6.346;2023-03-14T08:47:28;92793.31;;;23.38;34.13
65359;BME280;52491;45.900;6.346;2023-03-14T08:49:54;92787.19;;;23.37;34.07
65359;BME280;52491;45.900;6.346;2023-03-14T08:52:19;92781.88;;;23.37;34.41
65359;BME280;52491;45.900;6.346;2023-03-14T08:54:45;92799.41;;;23.38;34.08
65359;BME280;52491;45.900;6.346;2023-03-14T08:57:11;92818.34;;;23.37;34.23
65359;BME280;52491;45.900;6.346;2023-03-14T08:59:37;92815.66;;;23.37;34.08
65359;BME280;52491;45.900;6.346;2023-03-14T09:02:03;92828.19;;;23.36;34.19
65359;BME280;52491;45.900;6.346;2023-03-14T09:04:32;92832.41;;;23.37;34.07
65359;BME280;52491;45.900;6.346;2023-03-14T09:06:59;92837.75;;;23.37;34.17
65359;BME280;52491;45.900;6.346;2023-03-14T09:09:25;92848.91;;;23.39;33.88
65359;BME280;52491;45.900;6.346;2023-03-14T09:11:53;92849.16;;;23.38;33.88
65359;BME280;52491;45.900;6.346;2023-03-14T09:14:19;92845.72;;;23.37;33.84
65359;BME280;52491;45.900;6.346;2023-03-14T09:16:45;92845.19;;;23.35;34.14
65359;BME280;52491;45.900;6.346;2023-03-14T09:19:10;92857.44;;;23.36;34.01
65359;BME280;52491;45.900;6.346;2023-03-14T09:21:36;92871.78;;;23.35;33.91
65359;BME280;52491;45.900;6.346;2023-03-14T09:24:04;92878.19;;;23.34;34.01
65359;BME280;52491;45.900;6.346;2023-03-14T09:26:30;92885.38;;;23.34;33.74
65359;BME280;52491;45.900;6.346;2023-03-14T09:28:55;92896.03;;;23.34;33.90
65359;BME280;52491;45.900;6.346;2023-03-14T09:31:21;92894.16;;;23.34;34.02
65359;BME280;52491;45.900;6.346;2023-03-14T09:33:46;92910.09;;;23.34;33.85
65359;BME280;52491;45.900;6.346;2023-03-14T09:36:12;92910.09;;;23.34;33.91
65359;BME280;52491;45.900;6.346;2023-03-14T09:38:37;92915.44;;;23.34;33.89
65359;BME280;52491;45.900;6.346;2023-03-14T09:41:33;92913.84;;;23.33;33.84
65359;BME280;52491;45.900;6.346;2023-03-14T09:46:29;92916.00;;;23.31;34.04
65359;BME280;52491;45.900;6.346;2023-03-14T09:48:56;92921.31;;;23.31;33.81
65359;BME280;52491;45.900;6.346;2023-03-14T09:51:22;92928.50;;;23.31;33.80
65359;BME280;52491;45.900;6.346;2023-03-14T09:53:50;92937.25;;;23.31;33.83
65359;BME280;52491;45.900;6.346;2023-03-14T09:56:23;92941.00;;;23.30;33.85
65359;BME280;52491;45.900;6.346;2023-03-14T09:58:55;92939.91;;;23.31;33.79
65359;BME280;52491;45.900;6.346;2023-03-14T10:01:26;92947.91;;;23.31;33.76
65359;BME280;52491;45.900;6.346;2023-03-14T10:03:55;92955.09;;;23.31;33.90
65359;BME280;52491;45.900;6.346;2023-03-14T10:06:26;92956.97;;;23.30;33.87
65359;BME280;52491;45.900;6.346;2023-03-14T10:08:53;92964.94;;;23.30;33.82
65359;BME280;52491;45.900;6.346;2023-03-14T10:11:19;92965.19;;;23.29;33.69
65359;BME280;52491;45.900;6.346;2023-03-14T10:14:05;92977.41;;;23.30;33.81
65359;BME280;52491;45.900;6.346;2023-03-14T10:16:34;92980.06;;;23.30;33.70
65359;BME280;52491;45.900;6.346;2023-03-14T10:19:09;92995.25;;;23.29;33.57
65359;BME280;52491;45.900;6.346;2023-03-14T10:22:00;92993.66;;;23.28;33.72
65359;BME280;52491;45.900;6.346;2023-03-14T10:26:55;93009.63;;;23.28;33.54
65359;BME280;52491;45.900;6.346;2023-03-14T10:29:23;93022.91;;;23.28;33.37
65359;BME280;52491;45.900;6.346;2023-03-14T10:31:58;93037.00;;;23.29;33.58
65359;BME280;52491;45.900;6.346;2023-03-14T10:34:33;93047.91;;;23.27;33.55
65359;BME280;52491;45.900;6.346;2023-03-14T10:37:15;93053.22;;;23.27;33.66
65359;BME280;52491;45.900;6.346;2023-03-14T10:39:49;93065.47;;;23.28;33.43
65359;BME280;52491;45.900;6.346;2023-03-14T10:42:24;93077.16;;;23.27;33.64
65359;BME280;52491;45.900;6.346;2023-03-14T10:44:59;93099.50;;;23.26;33.75
65359;BME280;52491;45.900;6.346;2023-03-14T10:47:26;93144.72;;;23.26;33.46
65359;BME280;52491;45.900;6.346;2023-03-14T10:49:54;93148.47;;;23.25;33.72
65359;BME280;52491;45.900;6.346;2023-03-14T10:52:25;93156.44;;;23.25;33.60
65359;BME280;52491;45.900;6.346;2023-03-14T10:54:58;93145.81;;;23.25;33.42
65359;BME280;52491;45.900;6.346;2023-03-14T10:57:24;93140.75;;;23.23;33.34
65359;BME280;52491;45.900;6.346;2023-03-14T10:59:51;93154.03;;;23.23;33.33
65359;BME280;52491;45.900;6.346;2023-03-14T11:08:06;93170.00;;;23.23;33.29
65359;BME280;52491;45.900;6.346;2023-03-14T11:10:35;93169.22;;;23.23;33.33
65359;BME280;52491;45.900;6.346;2023-03-14T11:13:33;93168.41;;;23.22;33.27
65359;BME280;52491;45.900;6.346;2023-03-14T11:29:58;93197.94;;;23.21;33.25
65359;BME280;52491;45.900;6.346;2023-03-14T11:38:10;93204.34;;;23.15;32.91
65359;BME280;52491;45.900;6.346;2023-03-14T11:40:38;93214.72;;;23.16;32.93
65359;BME280;52491;45.900;6.346;2023-03-14T11:45:43;93223.19;;;23.13;32.68
65359;BME280;52491;45.900;6.346;2023-03-14T11:48:28;93228.56;;;23.08;32.58
65359;BME280;52491;45.900;6.346;2023-03-14T11:50:55;93230.66;;;22.91;32.75
65359;BME280;52491;45.900;6.346;2023-03-14T11:56:00;93221.91;;;22.85;31.87
65359;BME280;52491;45.900;6.346;2023-03-14T11:58:27;93231.25;;;22.83;32.08
65359;BME280;52491;45.900;6.346;2023-03-14T12:00:56;93234.41;;;22.85;32.50
65359;BME280;52491;45.900;6.346;2023-03-14T12:03:56;93230.66;;;22.91;32.82
65359;BME280;52491;45.900;6.346;2023-03-14T12:06:33;93223.22;;;22.93;32.98
65359;BME280;52491;45.900;6.346;2023-03-14T12:09:05;93228.03;;;22.96;33.10
65359;BME280;52491;45.900;6.346;2023-03-14T12:11:50;93234.13;;;22.96;33.11
65359;BME280;52491;45.900;6.346;2023-03-14T12:14:27;93240.28;;;22.97;33.07
65359;BME280;52491;45.900;6.346;2023-03-14T12:17:07;93228.03;;;22.86;31.51
65359;BME280;52491;45.900;6.346;2023-03-14T12:19:43;93216.63;;;22.70;32.10
65359;BME280;52491;45.900;6.346;2023-03-14T12:22:29;93232.81;;;22.73;32.70
65359;BME280;52491;45.900;6.346;2023-03-14T12:25:15;93231.75;;;22.79;32.94
65359;BME280;52491;45.900;6.346;2023-03-14T12:35:38;93230.16;;;22.89;33.71
65359;BME280;52491;45.900;6.346;2023-03-14T12:41:12;93215.00;;;22.94;33.96
65359;BME280;52491;45.900;6.346;2023-03-14T12:43:34;93213.38;;;22.93;34.00
65359;BME280;52491;45.900;6.346;2023-03-14T12:48:45;93215.78;;;22.95;34.23
65359;BME280;52491;45.900;6.346;2023-03-14T12:51:19;93213.69;;;22.97;34.11
65359;BME280;52491;45.900;6.346;2023-03-14T12:53:58;93205.72;;;22.97;34.33
65359;BME280;52491;45.900;6.346;2023-03-14T13:02:43;93191.59;;;22.96;34.44
65359;BME280;52491;45.900;6.346;2023-03-14T13:05:12;93198.00;;;22.95;34.29
65359;BME280;52491;45.900;6.346;2023-03-14T13:13:23;93188.44;;;22.99;34.64
65359;BME280;52491;45.900;6.346;2023-03-14T13:15:56;93194.81;;;22.98;34.48
65359;BME280;52491;45.900;6.346;2023-03-14T13:18:37;93191.09;;;22.99;34.49
65359;BME280;52491;45.900;6.346;2023-03-14T13:21:17;93184.69;;;23.00;34.50
65359;BME280;52491;45.900;6.346;2023-03-14T13:23:56;93191.09;;;22.99;34.50
65359;BME280;52491;45.900;6.346;2023-03-14T13:26:25;93182.84;;;23.01;34.77
65359;BME280;52491;45.900;6.346;2023-03-14T13:28:57;93182.31;;;22.99;34.68
65359;BME280;52491;45.900;6.346;2023-03-14T13:31:24;93174.88;;;23.01;34.71
65359;BME280;52491;45.900;6.346;2023-03-14T13:34:06;93168.47;;;23.02;34.64
65359;BME280;52491;45.900;6.346;2023-03-14T13:36:35;93184.69;;;23.06;34.63
65359;BME280;52491;45.900;6.346;2023-03-14T13:39:01;93187.06;;;23.07;34.86
65359;BME280;52491;45.900;6.346;2023-03-14T13:41:28;93178.84;;;23.09;34.97
65359;BME280;52491;45.900;6.346;2023-03-14T13:44:25;93177.75;;;23.10;34.72
65359;BME280;52491;45.900;6.346;2023-03-14T13:46:51;93178.84;;;23.09;34.68
65359;BME280;52491;45.900;6.346;2023-03-14T13:49:22;93169.53;;;23.11;34.79
65359;BME280;52491;45.900;6.346;2023-03-14T13:51:49;93175.88;;;23.10;34.75
65359;BME280;52491;45.900;6.346;2023-03-14T13:54:18;93171.38;;;23.11;34.73
65359;BME280;52491;45.900;6.346;2023-03-14T13:56:44;93170.31;;;23.12;34.83
65359;BME280;52491;45.900;6.346;2023-03-14T13:59:26;93169.22;;;23.13;34.71
65359;BME280;52491;45.900;6.346;2023-03-14T14:01:53;93170.84;;;23.14;34.89
65359;BME280;52491;45.900;6.346;2023-03-14T14:04:22;93169.75;;;23.15;34.72
65359;BME280;52491;45.900;6.346;2023-03-14T14:06:52;93185.19;;;23.13;34.97
65359;BME280;52491;45.900;6.346;2023-03-14T14:09:22;93185.19;;;23.13;35.08
65359;BME280;52491;45.900;6.346;2023-03-14T14:11:51;93188.63;;;23.13;35.23
65359;BME280;52491;45.900;6.346;2023-03-14T14:14:33;93190.50;;;23.13;35.01